SPQU/AQP METAR and TAF weather

Enter ICAO airport designator
Station Type Date Time Source
SPQU METAR 2020/04/02 20:00 UTC NOAA

SPQU 022000Z 28012KT 9999 BKN100 19/07 Q1026 NOSIG RMK TX 20.3 PP000


Station Type Date Time Source
SPQU Decoded METAR 2020/04/02 20:00 UTC NOAA

Arequipa, Peru (SPQU) 16-19S 071-33W 2539M
Apr 02, 2020 - 04:00 PM EDT / 2020.04.02 2000 UTC
Wind: from the W (280 degrees) at 14 MPH (12 KT):0
Visibility: greater than 7 mile(s):0
Sky conditions: mostly cloudy
Temperature: 66 F (19 C)
Dew Point: 44 F (7 C)
Relative Humidity: 45%
Pressure (altimeter): 30.30 in. Hg (1026 hPa)
ob: SPQU 022000Z 28012KT 9999 BKN100 19/07 Q1026 NOSIG RMK TX 20.3 PP000
cycle: 20

Station Type Date Time Source
SPQU TAF 2020/04/02 18:38 UTC NOAA

TAF SPQU 021700Z 0218/0318 27010KT 9999 SCT040 TX23/0218Z TN11/0311Z
FM022100 25007KT 8000 SCT040 BKN060
TEMPO 0300/0302 5000 RA
FM030300 03004KT 9999 SCT030 SCT120
FM031300 24005KT CAVOK

Example: see airport list